»·PEaware :: N8665R KLAX-KSAN

N8665R :: KLAX-KSAN

FLIGHT INFORMATION

Flight Status: Arrived
Operator: Privately registered:
United States
More flights under this callsign
Pilot: Mitchell F. (26966)
Aircraft: PIPER PA-24 COMMANCHE
(PA24)
More flights by this aircraft type
Origin: KLAX Los Angeles Intl
United States
Destination: KSAN San Diego Intl-Lindbergh
United States
More flights between these airports :: More routes between these airports
Route: DANAH V23 MZB
File this flight plan on PilotEdge
Remarks:
Altitude:
(Current/Filed)
5,500ft
Speed:
(Current/Filed)
155kts
Departed: 08-Aug-20 04:02 PM
Arrived: 08-Aug-20 04:49 PM
Distance/Time
Traveled:
95nm/0:47
Distance/Time
To Go:
Arrived

Flight Plot

Page will automatically refresh every two minutes.

Flight plan parsing failed; only flown route is shown


Map Options




Map Legend


Flown Route
Filed Route
Departure Airport
Arrival Airport
Navaid (VOR, NDB)
Fix

Horizontal Profiles

Position Reports

Time Latitude Longitude Heading Altitude Ground
Speed
08-Aug-20 15:45 33.941532 -118.394098 269 129ft 0kts
08-Aug-20 15:46 33.941532 -118.394102 269 129ft 0kts
08-Aug-20 15:47 33.941532 -118.394105 269 129ft 0kts
08-Aug-20 15:48 33.941532 -118.394108 269 129ft 0kts
08-Aug-20 15:49 33.941532 -118.394112 269 129ft 0kts
08-Aug-20 15:50 33.941532 -118.394116 269 129ft 0kts
08-Aug-20 15:51 33.941532 -118.394119 269 129ft 0kts
08-Aug-20 15:52 33.941532 -118.394123 269 129ft 0kts
08-Aug-20 15:53 33.941532 -118.394127 269 129ft 0kts
08-Aug-20 15:54 33.941532 -118.394131 269 129ft 0kts
08-Aug-20 15:55 33.941532 -118.394134 269 129ft 0kts
08-Aug-20 15:56 33.941532 -118.394138 269 129ft 0kts
08-Aug-20 15:57 33.940716 -118.392896 79 129ft 13kts
08-Aug-20 15:58 33.939869 -118.389836 83 129ft 16kts
08-Aug-20 15:59 33.940565 -118.383170 82 129ft 22kts
08-Aug-20 16:00 33.940692 -118.380557 118 129ft 0kts
08-Aug-20 16:01 33.939591 -118.383084 262 129ft 68kts
08-Aug-20 16:02 33.937854 -118.401253 266 495ft 97kts
08-Aug-20 16:03 33.932148 -118.435506 221 1759ft 113kts
08-Aug-20 16:04 33.903535 -118.415690 131 2637ft 145kts
08-Aug-20 16:05 33.874415 -118.374154 130 2378ft 167kts
08-Aug-20 16:06 33.843566 -118.332805 130 2445ft 165kts
08-Aug-20 16:07 33.813034 -118.291538 134 2392ft 164kts
08-Aug-20 16:08 33.788020 -118.246758 120 2879ft 161kts
08-Aug-20 16:09 33.765062 -118.200890 121 3143ft 157kts
08-Aug-20 16:10 33.742650 -118.156272 121 3504ft 152kts
08-Aug-20 16:11 33.720085 -118.115256 126 4105ft 147kts
08-Aug-20 16:12 33.697002 -118.076913 126 5108ft 133kts
08-Aug-20 16:13 33.674425 -118.038708 125 5644ft 157kts
08-Aug-20 16:14 33.649008 -117.994674 125 5603ft 161kts
08-Aug-20 16:15 33.623737 -117.950522 125 5536ft 159kts
08-Aug-20 16:16 33.597771 -117.906626 126 5540ft 165kts
08-Aug-20 16:17 33.572189 -117.862259 125 5523ft 159kts
08-Aug-20 16:18 33.547423 -117.817998 125 5517ft 159kts
08-Aug-20 16:19 33.522664 -117.773915 126 5517ft 159kts
08-Aug-20 16:20 33.497650 -117.729144 125 5522ft 165kts
08-Aug-20 16:21 33.472001 -117.684323 126 5517ft 160kts
08-Aug-20 16:22 33.445872 -117.640074 127 5520ft 165kts
08-Aug-20 16:23 33.418791 -117.595776 128 5519ft 165kts
08-Aug-20 16:24 33.391502 -117.550618 127 5523ft 172kts
08-Aug-20 16:25 33.362093 -117.507737 143 5518ft 166kts
08-Aug-20 16:26 33.323455 -117.478273 149 5518ft 167kts
08-Aug-20 16:27 33.284341 -117.449384 150 5469ft 166kts
08-Aug-20 16:28 33.245419 -117.422890 160 5471ft 159kts
08-Aug-20 16:29 33.203932 -117.405142 163 5480ft 158kts
08-Aug-20 16:30 33.162432 -117.387492 161 5482ft 158kts
08-Aug-20 16:31 33.121959 -117.366171 158 5482ft 159kts
08-Aug-20 16:32 33.080854 -117.346731 161 5483ft 159kts
08-Aug-20 16:33 33.039843 -117.327131 143 5475ft 162kts
08-Aug-20 16:34 33.009280 -117.287509 153 5477ft 161kts
08-Aug-20 16:35 32.966929 -117.273356 173 5498ft 158kts
08-Aug-20 16:36 32.932305 -117.249858 73 4250ft 170kts
08-Aug-20 16:37 32.948936 -117.259041 202 3780ft 161kts
08-Aug-20 16:38 32.904103 -117.252893 174 3667ft 157kts
08-Aug-20 16:39 32.860822 -117.245337 176 3517ft 151kts
08-Aug-20 16:40 32.819411 -117.238819 164 3023ft 143kts
08-Aug-20 16:41 32.785546 -117.215399 155 3064ft 139kts
08-Aug-20 16:42 32.752596 -117.196640 152 1833ft 134kts
08-Aug-20 16:43 32.736978 -117.162805 182 915ft 93kts
08-Aug-20 16:44 32.731487 -117.181267 286 101ft 92kts
08-Aug-20 16:45 32.742665 -117.212645 337 1043ft 100kts
08-Aug-20 16:46 32.749836 -117.182621 112 983ft 130kts
08-Aug-20 16:47 32.732237 -117.165437 211 399ft 85kts
08-Aug-20 16:48 32.732536 -117.185513 288 18ft 40kts
08-Aug-20 16:49 32.732801 -117.190513 189 18ft 12kts
08-Aug-20 16:50 32.731150 -117.190839 189 18ft 0kts

Navigation Log

Ident Type
Flight plan parsing failed, navigation log unavailable